createdAt,value
2023-02-22T00:02:45.313Z,93.00
2023-02-22T00:05:33.611Z,92.90
2023-02-22T00:08:19.822Z,92.90
2023-02-22T00:11:10.603Z,93.00
2023-02-22T00:13:57.415Z,92.90
2023-02-22T00:16:43.104Z,93.10
2023-02-22T00:19:30.777Z,93.10
2023-02-22T00:22:19.042Z,93.10
2023-02-22T00:25:04.670Z,93.10
2023-02-22T00:27:59.204Z,93.20
2023-02-22T00:30:45.890Z,93.20
2023-02-22T00:33:34.722Z,93.00
2023-02-22T00:36:20.052Z,93.20
2023-02-22T00:39:09.496Z,93.10
2023-02-22T00:41:54.959Z,93.10
2023-02-22T00:44:40.835Z,92.60
2023-02-22T00:47:27.616Z,93.00
2023-02-22T00:50:13.927Z,93.10
2023-02-22T00:53:04.569Z,92.80
2023-02-22T00:55:51.348Z,92.80
2023-02-22T00:58:36.916Z,93.20
2023-02-22T01:01:24.118Z,93.30
2023-02-22T01:04:10.515Z,93.20
2023-02-22T01:06:58.867Z,92.90
2023-02-22T01:09:46.008Z,92.90
2023-02-22T01:12:36.108Z,92.90
2023-02-22T01:15:28.942Z,93.20
2023-02-22T01:18:17.486Z,93.20
2023-02-22T01:21:04.834Z,93.40
2023-02-22T01:23:55.077Z,93.30
2023-02-22T01:26:40.640Z,93.40
2023-02-22T01:29:26.372Z,93.50
2023-02-22T01:32:14.933Z,93.20
2023-02-22T01:35:02.830Z,92.90
2023-02-22T01:37:48.492Z,93.10
2023-02-22T01:40:37.515Z,93.10
2023-02-22T01:43:30.042Z,93.10
2023-02-22T01:46:27.382Z,93.30
2023-02-22T01:49:15.355Z,93.20
2023-02-22T01:52:05.763Z,93.40
2023-02-22T01:54:58.940Z,93.40
2023-02-22T01:57:46.014Z,93.60
2023-02-22T02:00:32.172Z,93.80
2023-02-22T02:03:27.508Z,93.90
2023-02-22T02:06:13.920Z,94.00
2023-02-22T02:09:13.209Z,93.90
2023-02-22T02:12:02.684Z,93.70
2023-02-22T02:14:49.200Z,93.40
2023-02-22T02:17:37.420Z,93.40
2023-02-22T02:20:26.554Z,93.60
2023-02-22T02:23:20.803Z,93.60
2023-02-22T02:26:37.185Z,93.80
2023-02-22T02:29:48.255Z,94.00
2023-02-22T02:32:45.679Z,94.10
2023-02-22T02:35:57.516Z,94.10
2023-02-22T02:39:06.745Z,94.10
2023-02-22T02:41:53.956Z,94.00
2023-02-22T02:45:02.624Z,93.90
2023-02-22T02:47:54.909Z,94.20
2023-02-22T02:50:56.737Z,94.40
2023-02-22T02:53:52.408Z,94.10
2023-02-22T02:56:37.789Z,93.90
2023-02-22T02:59:27.404Z,93.80
2023-02-22T03:02:45.158Z,94.20
2023-02-22T03:05:52.641Z,94.50
2023-02-22T03:08:57.254Z,94.90
2023-02-22T03:12:16.861Z,94.70
2023-02-22T03:15:44.277Z,94.70
2023-02-22T03:18:53.674Z,94.50
2023-02-22T03:22:00.825Z,94.60
2023-02-22T03:25:02.296Z,94.70
2023-02-22T03:28:02.952Z,94.60
2023-02-22T03:30:56.552Z,94.50
2023-02-22T03:33:47.681Z,94.60
2023-02-22T03:36:49.167Z,94.60
2023-02-22T03:39:38.278Z,94.60
2023-02-22T03:42:31.718Z,94.30
2023-02-22T03:45:20.190Z,94.20
2023-02-22T03:48:26.209Z,94.50
2023-02-22T03:51:17.307Z,94.50
2023-02-22T03:54:08.274Z,94.30
2023-02-22T03:57:09.140Z,94.50
2023-02-22T03:59:57.414Z,94.90
2023-02-22T04:02:43.057Z,94.80
2023-02-22T04:05:37.680Z,95.00
2023-02-22T04:08:25.342Z,94.80
2023-02-22T04:11:11.112Z,94.80
2023-02-22T04:14:00.133Z,94.90
2023-02-22T04:16:45.629Z,95.00
2023-02-22T04:19:31.165Z,95.00
2023-02-22T04:22:19.283Z,94.90
2023-02-22T04:25:05.288Z,95.00
2023-02-22T04:27:50.920Z,95.10
2023-02-22T04:30:39.696Z,95.20
2023-02-22T04:33:28.176Z,95.10
2023-02-22T04:36:16.005Z,94.90
2023-02-22T04:39:02.240Z,95.00
2023-02-22T04:41:48.804Z,95.20
2023-02-22T04:44:34.628Z,95.20
2023-02-22T04:47:23.634Z,95.20
2023-02-22T04:50:12.116Z,95.10
2023-02-22T04:53:03.223Z,95.20
2023-02-22T04:55:49.107Z,95.30
2023-02-22T04:58:35.433Z,95.20
2023-02-22T05:01:21.010Z,95.30
2023-02-22T05:04:07.763Z,95.40
2023-02-22T05:06:55.069Z,95.30
2023-02-22T05:09:40.759Z,95.30
2023-02-22T05:12:27.808Z,95.40
2023-02-22T05:15:25.403Z,95.20
2023-02-22T05:18:10.901Z,95.40
2023-02-22T05:20:56.669Z,95.30
2023-02-22T05:23:45.086Z,95.40
2023-02-22T05:26:30.703Z,95.30
2023-02-22T05:29:20.041Z,95.10
2023-02-22T05:32:06.897Z,95.30
2023-02-22T05:34:52.321Z,95.40
2023-02-22T05:37:37.962Z,95.40
2023-02-22T05:40:26.378Z,95.30
2023-02-22T05:43:11.595Z,95.40
2023-02-22T05:45:56.938Z,95.50
2023-02-22T05:48:42.692Z,95.20
2023-02-22T05:51:30.660Z,95.40
2023-02-22T05:54:15.932Z,95.70
2023-02-22T05:57:01.491Z,95.50
2023-02-22T05:59:46.908Z,95.40
2023-02-22T06:02:33.099Z,95.80
2023-02-22T06:05:18.723Z,96.00
2023-02-22T06:08:08.731Z,96.00
2023-02-22T06:10:55.241Z,96.30
2023-02-22T06:13:40.814Z,96.00
2023-02-22T06:16:29.702Z,95.90
2023-02-22T06:19:15.377Z,95.90
2023-02-22T06:22:07.809Z,95.90
2023-02-22T06:24:55.034Z,96.40
2023-02-22T06:27:40.834Z,95.90
2023-02-22T06:30:27.559Z,96.00
2023-02-22T06:33:13.029Z,95.90
2023-02-22T06:35:58.508Z,96.00
2023-02-22T06:38:43.924Z,96.00
2023-02-22T06:41:30.075Z,95.90
2023-02-22T06:44:21.427Z,96.00
2023-02-22T06:47:07.426Z,96.10
2023-02-22T06:49:55.217Z,96.00
2023-02-22T06:52:47.111Z,96.50
2023-02-22T06:55:34.552Z,96.20
2023-02-22T06:58:20.053Z,96.20
2023-02-22T07:01:11.535Z,96.20
2023-02-22T07:03:58.271Z,96.10
2023-02-22T07:06:48.562Z,96.10
2023-02-22T07:09:34.040Z,96.10
2023-02-22T07:12:21.592Z,96.20
2023-02-22T07:15:07.460Z,96.20
2023-02-22T07:17:52.989Z,96.30
2023-02-22T07:20:38.632Z,96.40
2023-02-22T07:23:24.252Z,96.30
2023-02-22T07:26:10.007Z,96.30
2023-02-22T07:28:55.805Z,96.20
2023-02-22T07:31:44.096Z,96.20
2023-02-22T07:34:32.137Z,96.00
2023-02-22T07:37:17.746Z,95.70
2023-02-22T07:40:04.107Z,96.10
2023-02-22T07:43:01.495Z,96.20
2023-02-22T07:45:48.763Z,96.10
2023-02-22T07:48:41.079Z,96.00
2023-02-22T07:51:29.468Z,96.10
2023-02-22T07:54:14.899Z,96.20
2023-02-22T07:57:00.451Z,96.20
2023-02-22T07:59:46.230Z,96.20
2023-02-22T08:02:34.520Z,96.20
2023-02-22T08:05:21.479Z,96.40
2023-02-22T08:08:08.116Z,96.50
2023-02-22T08:10:53.646Z,96.40
2023-02-22T08:13:39.600Z,96.50
2023-02-22T08:16:25.282Z,96.40
2023-02-22T08:19:10.453Z,96.30
2023-02-22T08:21:57.260Z,96.30
2023-02-22T08:24:45.776Z,96.20
2023-02-22T08:27:31.538Z,96.30
2023-02-22T08:30:23.821Z,96.20
2023-02-22T08:33:10.320Z,96.30
2023-02-22T08:35:55.974Z,96.10
2023-02-22T08:38:41.622Z,96.20
2023-02-22T08:41:26.641Z,96.10
2023-02-22T08:44:12.984Z,96.20
2023-02-22T08:46:58.773Z,96.30
2023-02-22T08:49:44.896Z,96.40
2023-02-22T08:52:31.343Z,96.40
2023-02-22T08:55:20.185Z,96.30
2023-02-22T08:58:09.415Z,96.10
2023-02-22T09:00:54.983Z,96.20
2023-02-22T09:03:40.657Z,95.90
2023-02-22T09:06:26.272Z,95.90
2023-02-22T09:09:11.707Z,96.10
2023-02-22T09:11:57.245Z,95.90
2023-02-22T09:14:43.106Z,96.00
2023-02-22T09:17:28.593Z,95.70
2023-02-22T09:20:17.782Z,95.50
2023-02-22T09:23:07.239Z,95.40
2023-02-22T09:25:55.498Z,95.40
2023-02-22T09:28:40.929Z,95.60
2023-02-22T09:31:29.209Z,95.60
2023-02-22T09:34:15.502Z,95.50
2023-02-22T09:37:01.619Z,95.40
2023-02-22T09:39:47.230Z,95.30
2023-02-22T09:42:42.170Z,95.40
2023-02-22T09:46:03.497Z,95.40
2023-02-22T09:48:51.561Z,95.60
2023-02-22T09:51:45.389Z,95.50
2023-02-22T09:55:18.009Z,95.40
2023-02-22T09:58:26.363Z,95.00
2023-02-22T10:01:23.172Z,94.70
2023-02-22T10:04:41.921Z,94.50
2023-02-22T10:07:45.559Z,94.30
2023-02-22T10:10:34.899Z,93.90
2023-02-22T10:13:42.346Z,93.50
2023-02-22T10:16:43.242Z,94.20
2023-02-22T10:19:45.844Z,94.30
2023-02-22T10:23:02.479Z,94.10
2023-02-22T10:25:53.226Z,94.20
2023-02-22T10:28:46.210Z,94.30
2023-02-22T10:31:41.298Z,93.80
2023-02-22T10:34:33.421Z,93.90
2023-02-22T10:37:45.404Z,92.40
2023-02-22T10:40:34.796Z,91.70
2023-02-22T10:43:22.430Z,92.10
2023-02-22T10:46:13.849Z,91.30
2023-02-22T10:49:04.806Z,91.20
2023-02-22T10:52:03.171Z,91.20
2023-02-22T10:54:51.855Z,91.30
2023-02-22T10:57:37.845Z,91.00
2023-02-22T11:00:29.441Z,90.90
2023-02-22T11:03:21.112Z,91.00
2023-02-22T11:06:21.742Z,90.50
2023-02-22T11:09:17.994Z,89.20
2023-02-22T11:12:16.727Z,88.30
2023-02-22T11:15:28.158Z,89.50
2023-02-22T11:18:27.822Z,89.90
2023-02-22T11:21:16.524Z,90.50
2023-02-22T11:24:08.824Z,89.50
2023-02-22T11:26:57.923Z,90.00
2023-02-22T11:29:43.722Z,89.20
2023-02-22T11:32:36.538Z,88.30
2023-02-22T11:35:28.171Z,89.10
2023-02-22T11:38:21.807Z,89.20
2023-02-22T11:41:19.246Z,89.10
2023-02-22T11:44:14.002Z,87.90
2023-02-22T11:47:06.872Z,87.80
2023-02-22T11:49:53.584Z,86.90
2023-02-22T11:52:44.735Z,88.10
2023-02-22T11:55:43.597Z,86.10
2023-02-22T11:58:48.473Z,86.20
2023-02-22T12:02:00.283Z,87.60
2023-02-22T12:05:10.889Z,87.60
2023-02-22T12:08:19.941Z,87.20
2023-02-22T12:11:22.207Z,87.80
2023-02-22T12:14:19.208Z,85.90
2023-02-22T12:17:26.155Z,87.00
2023-02-22T12:20:25.772Z,85.80
2023-02-22T12:23:20.683Z,86.40
2023-02-22T12:26:13.372Z,85.60
2023-02-22T12:29:14.479Z,84.70
2023-02-22T12:32:21.969Z,84.60
2023-02-22T12:35:11.002Z,84.50
2023-02-22T12:38:26.582Z,83.00
2023-02-22T12:41:33.500Z,83.20
2023-02-22T12:44:25.741Z,83.30
2023-02-22T12:47:18.445Z,82.60
2023-02-22T12:50:15.900Z,82.30
2023-02-22T12:53:13.483Z,82.60
2023-02-22T12:56:20.078Z,83.20
2023-02-22T12:59:42.661Z,82.30
2023-02-22T13:02:51.081Z,81.60
2023-02-22T13:05:39.696Z,82.10
2023-02-22T13:08:59.234Z,82.40
2023-02-22T13:12:03.099Z,82.20
2023-02-22T13:15:14.560Z,82.60
2023-02-22T13:18:18.474Z,80.90
2023-02-22T13:21:14.958Z,80.80
2023-02-22T13:24:25.865Z,81.20
2023-02-22T13:27:26.335Z,81.20
2023-02-22T13:30:33.133Z,81.60
2023-02-22T13:33:51.430Z,81.70
2023-02-22T13:36:48.734Z,81.70
2023-02-22T13:39:47.381Z,81.70
2023-02-22T13:43:01.348Z,82.00
2023-02-22T13:45:53.117Z,82.60
2023-02-22T13:49:06.766Z,82.20
2023-02-22T13:52:08.129Z,81.50
2023-02-22T13:54:58.170Z,81.90
2023-02-22T13:57:48.904Z,81.40
2023-02-22T14:00:47.430Z,81.20
2023-02-22T14:03:40.390Z,81.70
2023-02-22T14:06:43.611Z,81.90
2023-02-22T14:09:48.354Z,82.70
2023-02-22T14:12:36.739Z,82.60
2023-02-22T14:15:31.225Z,82.00
2023-02-22T14:18:24.938Z,82.10
2023-02-22T14:21:20.626Z,81.80
2023-02-22T14:24:15.795Z,82.00
2023-02-22T14:27:07.131Z,82.60
2023-02-22T14:29:55.479Z,82.20
2023-02-22T14:32:41.399Z,81.90
2023-02-22T14:35:49.514Z,82.20
2023-02-22T14:38:35.896Z,82.40
2023-02-22T14:41:30.058Z,82.20
2023-02-22T14:44:23.328Z,82.60
2023-02-22T14:47:21.001Z,83.20
2023-02-22T14:50:14.977Z,83.40
2023-02-22T14:53:12.054Z,83.80
2023-02-22T14:56:02.566Z,84.10
2023-02-22T14:58:55.091Z,84.40
2023-02-22T15:01:58.447Z,84.60
2023-02-22T15:04:56.375Z,84.90
2023-02-22T15:08:00.938Z,85.00
2023-02-22T15:10:48.463Z,84.50
2023-02-22T15:13:34.410Z,84.20
2023-02-22T15:16:22.232Z,84.70
2023-02-22T15:19:21.366Z,85.50
2023-02-22T15:22:30.086Z,85.30
2023-02-22T15:25:23.967Z,85.40
2023-02-22T15:28:15.093Z,85.80
2023-02-22T15:31:30.980Z,86.00
2023-02-22T15:34:17.011Z,86.60
2023-02-22T15:37:20.264Z,86.90
2023-02-22T15:40:14.684Z,87.40
2023-02-22T15:43:24.229Z,87.50
2023-02-22T15:46:12.495Z,88.00
2023-02-22T15:49:10.437Z,88.50
2023-02-22T15:52:06.476Z,88.90
2023-02-22T15:54:52.551Z,88.70
2023-02-22T15:57:39.619Z,88.60
2023-02-22T16:00:38.531Z,88.80
2023-02-22T16:03:28.370Z,88.80
2023-02-22T16:06:36.709Z,89.40
2023-02-22T16:09:27.307Z,89.80
2023-02-22T16:12:21.852Z,89.80
2023-02-22T16:15:17.849Z,90.00
2023-02-22T16:18:26.804Z,90.10
2023-02-22T16:21:21.603Z,90.20
2023-02-22T16:24:27.786Z,90.30
2023-02-22T16:27:14.611Z,90.60
2023-02-22T16:30:18.699Z,90.60
2023-02-22T16:33:16.493Z,90.70
2023-02-22T16:36:06.329Z,90.90
2023-02-22T16:38:52.441Z,91.00
2023-02-22T16:41:40.480Z,91.00
2023-02-22T16:44:26.862Z,91.20
2023-02-22T16:47:12.655Z,91.50
2023-02-22T16:50:00.734Z,91.70
2023-02-22T16:53:00.812Z,91.70
2023-02-22T16:55:48.312Z,91.70
2023-02-22T16:58:37.110Z,92.10
2023-02-22T17:01:25.258Z,92.10
2023-02-22T17:04:24.219Z,92.20
2023-02-22T17:07:14.957Z,92.30
2023-02-22T17:10:00.330Z,92.30
2023-02-22T17:12:53.222Z,92.40
2023-02-22T17:15:41.873Z,92.50
2023-02-22T17:18:30.230Z,92.50
2023-02-22T17:21:16.635Z,92.40
2023-02-22T17:24:02.184Z,92.40
2023-02-22T17:26:50.326Z,92.50
2023-02-22T17:29:35.817Z,92.50
2023-02-22T17:32:21.524Z,92.50
2023-02-22T17:35:09.616Z,92.60
2023-02-22T17:37:58.238Z,92.60
2023-02-22T17:40:43.677Z,92.60
2023-02-22T17:43:29.456Z,92.60
2023-02-22T17:46:15.777Z,92.50
2023-02-22T17:49:01.869Z,92.50
2023-02-22T17:51:49.682Z,92.60
2023-02-22T17:54:35.117Z,92.70
2023-02-22T17:57:21.502Z,92.90
2023-02-22T18:00:12.472Z,93.00
2023-02-22T18:03:07.719Z,93.10
2023-02-22T18:05:59.418Z,93.30
2023-02-22T18:08:45.165Z,93.30
2023-02-22T18:11:33.338Z,93.30
2023-02-22T18:14:21.577Z,93.50
2023-02-22T18:17:07.299Z,93.50
2023-02-22T18:19:52.870Z,93.50
2023-02-22T18:22:45.544Z,93.60
2023-02-22T18:25:33.069Z,93.50
2023-02-22T18:28:20.278Z,93.50
2023-02-22T18:31:14.478Z,93.50
2023-02-22T18:34:00.296Z,93.50
2023-02-22T18:36:45.821Z,93.50
2023-02-22T18:39:40.013Z,93.50
2023-02-22T18:42:27.370Z,93.50
2023-02-22T18:45:13.151Z,93.50
2023-02-22T18:48:01.447Z,93.60
2023-02-22T18:50:46.792Z,93.60
2023-02-22T18:53:32.790Z,93.60
2023-02-22T18:56:22.873Z,93.60
2023-02-22T18:59:12.142Z,93.60
2023-02-22T19:01:57.761Z,93.70
2023-02-22T19:04:45.259Z,93.70
2023-02-22T19:07:30.744Z,93.80
2023-02-22T19:10:16.770Z,93.70
2023-02-22T19:13:02.009Z,93.80
2023-02-22T19:15:50.527Z,93.60
2023-02-22T19:18:40.052Z,93.50
2023-02-22T19:21:33.357Z,93.50
2023-02-22T19:24:22.127Z,93.70
2023-02-22T19:27:07.997Z,93.90
2023-02-22T19:30:03.386Z,94.00
2023-02-22T19:32:50.035Z,94.20
2023-02-22T19:35:36.089Z,94.30
2023-02-22T19:38:24.562Z,94.50
2023-02-22T19:41:17.681Z,94.60
2023-02-22T19:44:04.327Z,94.70
2023-02-22T19:46:49.824Z,94.90
2023-02-22T19:49:36.868Z,94.80
2023-02-22T19:52:25.324Z,95.00
2023-02-22T19:55:12.915Z,95.20
2023-02-22T19:57:58.474Z,95.10
2023-02-22T20:00:44.232Z,95.20
2023-02-22T20:03:34.902Z,95.20
2023-02-22T20:06:33.400Z,95.30
2023-02-22T20:09:23.224Z,95.40
2023-02-22T20:12:08.731Z,95.40
2023-02-22T20:14:55.342Z,95.70
2023-02-22T20:17:50.444Z,95.70
2023-02-22T20:20:41.783Z,95.80
2023-02-22T20:23:28.849Z,96.10
2023-02-22T20:26:18.208Z,95.60
2023-02-22T20:29:04.663Z,95.80
2023-02-22T20:31:53.805Z,96.10
2023-02-22T20:34:39.416Z,95.90
2023-02-22T20:37:25.316Z,95.90
2023-02-22T20:40:23.249Z,96.00
2023-02-22T20:43:09.725Z,96.20
2023-02-22T20:46:02.427Z,96.10
2023-02-22T20:48:59.252Z,96.20
2023-02-22T20:51:46.656Z,96.10
2023-02-22T20:54:34.412Z,96.20
2023-02-22T20:57:20.046Z,96.30
2023-02-22T21:00:10.395Z,96.40
2023-02-22T21:02:59.290Z,96.50
2023-02-22T21:05:47.966Z,96.50
2023-02-22T21:08:33.447Z,96.60
2023-02-22T21:11:19.860Z,96.70
2023-02-22T21:14:06.530Z,96.60
2023-02-22T21:16:52.790Z,96.50
2023-02-22T21:19:39.493Z,96.60
2023-02-22T21:22:25.652Z,96.70
2023-02-22T21:25:11.984Z,96.70
2023-02-22T21:27:59.682Z,96.70
2023-02-22T21:30:46.578Z,96.70
2023-02-22T21:33:32.158Z,96.90
2023-02-22T21:36:18.540Z,96.90
2023-02-22T21:39:17.906Z,97.10
2023-02-22T21:42:07.133Z,97.10
2023-02-22T21:44:56.122Z,97.10
2023-02-22T21:47:47.788Z,97.30
2023-02-22T21:50:37.675Z,97.20
2023-02-22T21:53:23.726Z,97.30
2023-02-22T21:56:09.211Z,97.30
2023-02-22T21:59:06.093Z,97.30
2023-02-22T22:01:55.578Z,97.60
2023-02-22T22:04:41.379Z,97.40
2023-02-22T22:07:29.869Z,97.40
2023-02-22T22:10:18.631Z,97.40
2023-02-22T22:13:09.081Z,97.40
2023-02-22T22:15:54.534Z,97.50
2023-02-22T22:18:52.323Z,97.40
2023-02-22T22:21:38.062Z,97.40
2023-02-22T22:24:23.969Z,97.30
2023-02-22T22:27:12.514Z,97.40
2023-02-22T22:30:00.844Z,97.30
2023-02-22T22:32:50.378Z,97.40
2023-02-22T22:35:41.874Z,97.40
2023-02-22T22:38:29.064Z,97.50
2023-02-22T22:41:17.177Z,97.30
2023-02-22T22:44:02.722Z,97.40
2023-02-22T22:46:55.049Z,97.40
2023-02-22T22:49:40.600Z,97.40
2023-02-22T22:52:31.365Z,97.50
2023-02-22T22:55:16.993Z,97.70
2023-02-22T22:58:05.398Z,97.50
2023-02-22T23:00:59.929Z,97.50
2023-02-22T23:04:01.338Z,97.50
2023-02-22T23:06:52.338Z,97.50
2023-02-22T23:09:41.776Z,97.40
2023-02-22T23:12:31.539Z,97.40
2023-02-22T23:15:18.057Z,97.50
2023-02-22T23:18:03.828Z,97.60
2023-02-22T23:20:55.042Z,97.60
2023-02-22T23:23:41.312Z,97.60
2023-02-22T23:26:27.095Z,97.70
2023-02-22T23:29:12.387Z,97.70
2023-02-22T23:31:58.714Z,97.70
2023-02-22T23:34:44.159Z,97.90
2023-02-22T23:37:35.484Z,97.80
2023-02-22T23:40:21.061Z,97.70
2023-02-22T23:43:07.639Z,97.70
2023-02-22T23:45:57.346Z,97.60
2023-02-22T23:48:48.305Z,97.60
2023-02-22T23:51:39.706Z,97.70
2023-02-22T23:54:24.878Z,97.70
2023-02-22T23:57:10.573Z,97.80
2023-02-22T23:59:56.320Z,97.90
